createdAt,value
2022-09-07T00:01:28.126Z,14.90
2022-09-07T00:04:29.983Z,14.90
2022-09-07T00:07:31.806Z,14.90
2022-09-07T00:10:33.627Z,15.00
2022-09-07T00:13:35.855Z,15.00
2022-09-07T00:16:37.750Z,15.00
2022-09-07T00:19:39.631Z,15.00
2022-09-07T00:22:41.443Z,15.00
2022-09-07T00:25:43.303Z,15.00
2022-09-07T00:28:45.171Z,15.00
2022-09-07T00:31:47.158Z,15.00
2022-09-07T00:34:50.328Z,15.00
2022-09-07T00:37:52.781Z,15.00
2022-09-07T00:40:54.564Z,15.00
2022-09-07T00:43:57.323Z,15.00
2022-09-07T00:46:59.185Z,15.00
2022-09-07T00:50:02.982Z,15.00
2022-09-07T00:53:11.132Z,15.00
2022-09-07T00:56:12.939Z,15.10
2022-09-07T00:59:15.391Z,15.10
2022-09-07T01:02:18.067Z,15.10
2022-09-07T01:05:22.879Z,15.10
2022-09-07T01:08:24.797Z,15.10
2022-09-07T01:11:26.652Z,15.10
2022-09-07T01:14:31.060Z,15.10
2022-09-07T01:17:37.693Z,15.10
2022-09-07T01:20:55.708Z,15.10
2022-09-07T01:24:21.027Z,15.10
2022-09-07T01:27:28.628Z,15.10
2022-09-07T01:30:31.025Z,15.10
2022-09-07T01:33:51.059Z,15.20
2022-09-07T01:36:52.820Z,15.30
2022-09-07T01:39:57.316Z,15.30
2022-09-07T01:43:04.760Z,15.30
2022-09-07T01:46:10.899Z,15.30
2022-09-07T01:49:15.517Z,15.30
2022-09-07T01:52:19.835Z,15.40
2022-09-07T01:55:26.953Z,15.40
2022-09-07T01:58:31.893Z,15.50
2022-09-07T02:01:36.262Z,15.50
2022-09-07T02:04:45.461Z,15.60
2022-09-07T02:07:57.789Z,15.60
2022-09-07T02:11:04.361Z,15.60
2022-09-07T02:14:06.149Z,15.60
2022-09-07T02:17:09.867Z,15.70
2022-09-07T02:20:12.548Z,15.70
2022-09-07T02:23:16.056Z,15.60
2022-09-07T02:26:19.396Z,15.70
2022-09-07T02:29:21.371Z,15.70
2022-09-07T02:32:23.186Z,15.70
2022-09-07T02:35:27.207Z,15.70
2022-09-07T02:38:29.098Z,15.70
2022-09-07T02:41:34.895Z,15.80
2022-09-07T02:44:37.509Z,15.80
2022-09-07T02:47:57.923Z,15.80
2022-09-07T02:51:02.525Z,15.80
2022-09-07T02:54:14.474Z,15.90
2022-09-07T02:57:35.701Z,15.90
2022-09-07T03:00:41.012Z,15.90
2022-09-07T03:03:46.678Z,15.90
2022-09-07T03:06:49.724Z,15.90
2022-09-07T03:09:53.258Z,15.90
2022-09-07T03:12:55.080Z,16.00
2022-09-07T03:15:57.026Z,16.00
2022-09-07T03:18:58.853Z,16.00
2022-09-07T03:22:00.708Z,16.00
2022-09-07T03:25:04.417Z,16.00
2022-09-07T03:28:06.480Z,15.90
2022-09-07T03:31:08.351Z,16.00
2022-09-07T03:34:10.271Z,16.00
2022-09-07T03:37:12.079Z,16.00
2022-09-07T03:40:14.750Z,16.00
2022-09-07T03:43:17.725Z,16.00
2022-09-07T03:46:19.743Z,16.00
2022-09-07T03:49:21.576Z,16.00
2022-09-07T03:52:23.375Z,16.10
2022-09-07T03:55:25.235Z,16.10
2022-09-07T03:58:28.490Z,16.10
2022-09-07T04:01:30.374Z,16.10
2022-09-07T04:04:32.440Z,16.20
2022-09-07T04:07:34.261Z,16.20
2022-09-07T04:10:39.679Z,16.30
2022-09-07T04:13:41.633Z,16.30
2022-09-07T04:16:45.551Z,16.30
2022-09-07T04:19:47.410Z,16.30
2022-09-07T04:22:53.665Z,16.20
2022-09-07T04:25:56.047Z,16.20
2022-09-07T04:28:58.235Z,16.20
2022-09-07T04:32:00.096Z,16.10
2022-09-07T04:35:01.909Z,16.00
2022-09-07T04:38:04.085Z,15.90
2022-09-07T04:41:06.926Z,15.90
2022-09-07T04:44:13.647Z,15.80
2022-09-07T04:47:18.039Z,15.70
2022-09-07T04:50:19.828Z,15.70
2022-09-07T04:53:21.847Z,15.60
2022-09-07T04:56:23.652Z,15.60
2022-09-07T04:59:25.780Z,15.60
2022-09-07T05:02:27.619Z,15.50
2022-09-07T05:05:29.442Z,15.40
2022-09-07T05:08:31.539Z,15.50
2022-09-07T05:11:33.427Z,15.60
2022-09-07T05:14:35.229Z,15.50
2022-09-07T05:17:37.239Z,15.60
2022-09-07T05:20:39.533Z,15.60
2022-09-07T05:23:41.604Z,15.60
2022-09-07T05:26:43.383Z,15.60
2022-09-07T05:33:02.563Z,15.60
2022-09-07T05:36:04.884Z,15.60
2022-09-07T05:39:06.807Z,15.60
2022-09-07T05:42:08.620Z,15.50
2022-09-07T05:45:11.119Z,15.60
2022-09-07T05:48:13.006Z,15.60
2022-09-07T05:51:14.845Z,15.60
2022-09-07T05:54:16.685Z,15.60
2022-09-07T05:57:18.479Z,15.60
2022-09-07T06:00:21.572Z,15.60
2022-09-07T06:03:24.960Z,15.50
2022-09-07T06:06:26.960Z,15.50
2022-09-07T06:09:30.670Z,15.50
2022-09-07T06:12:32.661Z,15.50
2022-09-07T06:15:34.844Z,15.50
2022-09-07T06:18:37.341Z,15.60
2022-09-07T06:21:39.291Z,15.60
2022-09-07T06:24:41.068Z,15.60
2022-09-07T06:27:42.875Z,15.60
2022-09-07T06:30:44.657Z,15.50
2022-09-07T06:33:47.708Z,15.60
2022-09-07T06:36:49.579Z,15.60
2022-09-07T06:39:51.356Z,15.60
2022-09-07T06:42:53.324Z,15.70
2022-09-07T06:45:55.382Z,15.70
2022-09-07T06:48:57.297Z,15.80
2022-09-07T06:51:59.170Z,16.00
2022-09-07T06:55:01.298Z,16.00
2022-09-07T06:58:03.415Z,16.10
2022-09-07T07:01:06.815Z,16.30
2022-09-07T07:04:08.673Z,16.40
2022-09-07T07:07:14.091Z,16.90
2022-09-07T07:10:17.839Z,17.50
2022-09-07T07:16:22.333Z,19.10
2022-09-07T07:19:24.167Z,19.90
2022-09-07T07:25:47.791Z,21.20
2022-09-07T07:29:05.530Z,21.80
2022-09-07T07:32:07.324Z,21.90
2022-09-07T07:35:09.276Z,22.40
2022-09-07T07:48:17.257Z,24.40
2022-09-07T07:51:19.546Z,23.80
2022-09-07T07:54:21.353Z,23.20
2022-09-07T07:57:23.240Z,23.50
2022-09-07T08:00:43.719Z,24.10
2022-09-07T08:03:49.784Z,23.40
2022-09-07T08:06:52.419Z,22.40
2022-09-07T08:09:54.217Z,22.00
2022-09-07T08:12:56.284Z,22.20
2022-09-07T08:15:59.004Z,23.20
2022-09-07T08:19:01.677Z,24.00
2022-09-07T08:22:04.016Z,24.70
2022-09-07T08:25:07.097Z,24.90
2022-09-07T08:28:08.894Z,25.30
2022-09-07T08:31:11.744Z,25.70
2022-09-07T08:34:13.508Z,25.40
2022-09-07T08:37:15.259Z,25.20
2022-09-07T08:40:17.607Z,24.60
2022-09-07T08:43:23.407Z,24.20
2022-09-07T08:46:34.402Z,23.50
2022-09-07T08:49:56.044Z,23.00
2022-09-07T08:52:57.797Z,22.40
2022-09-07T08:56:04.728Z,22.70
2022-09-07T08:59:36.066Z,23.00
2022-09-07T09:02:45.518Z,23.30
2022-09-07T09:05:47.588Z,23.40
2022-09-07T09:09:02.957Z,22.60
2022-09-07T09:12:08.381Z,23.20
2022-09-07T09:15:18.187Z,23.50
2022-09-07T09:18:38.637Z,23.90
2022-09-07T09:21:40.521Z,24.80
2022-09-07T09:24:48.967Z,25.80
2022-09-07T09:27:50.703Z,26.10
2022-09-07T09:30:52.482Z,26.60
2022-09-07T09:34:11.359Z,26.60
2022-09-07T09:37:13.173Z,27.00
2022-09-07T09:40:38.113Z,26.60
2022-09-07T09:43:52.808Z,26.90
2022-09-07T09:53:55.146Z,26.30
2022-09-07T09:56:56.985Z,25.10
2022-09-07T10:00:06.912Z,24.20
2022-09-07T10:06:36.446Z,23.50
2022-09-07T10:09:39.225Z,23.00
2022-09-07T10:12:41.008Z,22.50
2022-09-07T10:15:42.818Z,22.30
2022-09-07T10:18:54.472Z,22.20
2022-09-07T10:21:56.945Z,21.40
2022-09-07T10:24:58.895Z,21.10
2022-09-07T10:28:05.510Z,20.80
2022-09-07T10:31:15.276Z,20.60
2022-09-07T10:34:36.264Z,20.40
2022-09-07T10:37:51.260Z,21.10
2022-09-07T10:40:53.014Z,22.00
2022-09-07T10:43:54.755Z,22.90
2022-09-07T10:47:24.818Z,22.60
2022-09-07T10:50:31.894Z,22.10
2022-09-07T10:53:46.632Z,22.50
2022-09-07T10:56:59.420Z,23.20
2022-09-07T11:00:10.803Z,23.50
2022-09-07T11:03:26.698Z,23.20
2022-09-07T11:06:35.759Z,22.50
2022-09-07T11:09:37.549Z,22.70
2022-09-07T11:12:39.360Z,23.20
2022-09-07T11:15:46.011Z,23.30
2022-09-07T11:18:52.778Z,23.20
2022-09-07T11:21:57.666Z,23.20
2022-09-07T11:25:33.519Z,23.60
2022-09-07T11:28:41.376Z,23.60
2022-09-07T11:31:48.836Z,23.20
2022-09-07T11:34:52.430Z,23.30
2022-09-07T11:37:59.443Z,23.20
2022-09-07T11:41:16.457Z,23.40
2022-09-07T11:44:25.303Z,23.80
2022-09-07T11:47:38.897Z,24.10
2022-09-07T11:50:46.273Z,24.00
2022-09-07T11:53:52.909Z,23.40
2022-09-07T11:57:03.901Z,22.70
2022-09-07T12:00:12.323Z,22.20
2022-09-07T12:03:32.981Z,22.70
2022-09-07T12:06:49.933Z,22.80
2022-09-07T12:10:00.759Z,22.80
2022-09-07T12:13:02.579Z,22.80
2022-09-07T12:16:09.931Z,22.70
2022-09-07T12:19:11.742Z,22.90
2022-09-07T12:22:20.297Z,23.50
2022-09-07T12:25:22.056Z,23.70
2022-09-07T12:28:23.807Z,23.70
2022-09-07T12:31:57.250Z,23.60
2022-09-07T12:34:59.812Z,23.30
2022-09-07T12:38:02.073Z,23.70
2022-09-07T12:41:04.248Z,24.00
2022-09-07T12:44:07.206Z,23.80
2022-09-07T12:47:08.970Z,23.70
2022-09-07T12:50:16.685Z,23.10
2022-09-07T12:53:24.521Z,23.00
2022-09-07T12:56:26.304Z,23.00
2022-09-07T12:59:31.207Z,23.20
2022-09-07T13:02:33.064Z,23.40
2022-09-07T13:05:38.170Z,23.60
2022-09-07T13:08:52.759Z,23.20
2022-09-07T13:11:54.559Z,23.10
2022-09-07T13:14:57.070Z,23.10
2022-09-07T13:17:59.054Z,22.50
2022-09-07T13:21:07.154Z,22.50
2022-09-07T13:27:47.261Z,22.40
2022-09-07T13:31:00.151Z,23.00
2022-09-07T13:34:02.056Z,23.30
2022-09-07T13:37:04.842Z,23.10
2022-09-07T13:40:09.040Z,22.60
2022-09-07T13:43:15.417Z,22.60
2022-09-07T13:46:26.473Z,22.30
2022-09-07T13:49:32.249Z,22.00
2022-09-07T13:52:43.797Z,22.00
2022-09-07T13:55:46.760Z,22.10
2022-09-07T13:58:49.464Z,22.10
2022-09-07T14:01:51.283Z,22.20
2022-09-07T14:04:54.933Z,22.10
2022-09-07T14:07:56.713Z,21.80
2022-09-07T14:10:58.484Z,22.30
2022-09-07T14:14:06.327Z,22.50
2022-09-07T14:17:11.568Z,22.10
2022-09-07T14:20:14.157Z,22.00
2022-09-07T14:23:21.090Z,22.10
2022-09-07T14:26:23.155Z,22.50
2022-09-07T14:29:26.204Z,22.30
2022-09-07T14:32:27.993Z,22.30
2022-09-07T14:35:32.271Z,21.90
2022-09-07T14:39:04.556Z,21.80
2022-09-07T14:41:56.497Z,21.70
2022-09-07T14:45:29.719Z,21.70
2022-09-07T14:48:34.358Z,21.50
2022-09-07T14:51:37.001Z,21.20
2022-09-07T14:54:38.907Z,21.10
2022-09-07T14:57:40.703Z,21.30
2022-09-07T15:00:46.288Z,21.50
2022-09-07T15:03:48.324Z,21.80
2022-09-07T15:07:05.570Z,21.80
2022-09-07T15:10:13.280Z,21.80
2022-09-07T15:13:25.409Z,21.90
2022-09-07T15:16:27.353Z,21.90
2022-09-07T15:19:32.808Z,21.80
2022-09-07T15:22:34.571Z,21.80
2022-09-07T15:25:36.455Z,21.80
2022-09-07T15:32:04.313Z,22.30
2022-09-07T15:35:06.573Z,22.20
2022-09-07T15:41:30.315Z,22.60
2022-09-07T15:44:32.103Z,22.80
2022-09-07T15:47:52.032Z,22.50
2022-09-07T15:52:04.314Z,22.30
2022-09-07T15:54:26.900Z,22.30
2022-09-07T16:01:51.463Z,21.90
2022-09-07T16:04:13.679Z,21.90
2022-09-07T16:07:15.518Z,22.20
2022-09-07T16:10:17.456Z,22.20
2022-09-07T16:13:19.225Z,22.40
2022-09-07T16:16:21.244Z,21.90
2022-09-07T16:19:23.604Z,21.50
2022-09-07T16:25:57.235Z,21.80
2022-09-07T16:28:59.013Z,22.00
2022-09-07T16:35:23.121Z,22.20
2022-09-07T16:41:47.323Z,21.80
2022-09-07T16:44:49.348Z,21.50
2022-09-07T16:47:51.430Z,21.40
2022-09-07T16:51:01.639Z,21.40
2022-09-07T16:54:04.046Z,21.20
2022-09-07T16:57:05.818Z,21.20
2022-09-07T17:00:08.002Z,21.30
2022-09-07T17:03:10.929Z,21.10
2022-09-07T17:06:13.189Z,21.00
2022-09-07T17:09:15.020Z,20.90
2022-09-07T17:12:16.768Z,20.70
2022-09-07T17:15:18.561Z,20.60
2022-09-07T17:19:28.793Z,20.50
2022-09-07T17:21:42.412Z,20.40
2022-09-07T17:24:44.156Z,20.20
2022-09-07T17:27:46.004Z,20.20
2022-09-07T17:30:47.749Z,20.20
2022-09-07T17:33:50.322Z,20.10
2022-09-07T17:36:52.081Z,20.10
2022-09-07T17:39:53.955Z,20.00
2022-09-07T17:46:24.963Z,19.80
2022-09-07T17:49:27.544Z,19.80
2022-09-07T17:52:29.341Z,19.80
2022-09-07T17:55:31.770Z,19.70
2022-09-07T17:58:41.232Z,19.60
2022-09-07T18:01:43.199Z,19.50
2022-09-07T18:04:45.022Z,19.40
2022-09-07T18:07:47.883Z,19.30
2022-09-07T18:14:13.545Z,19.10
2022-09-07T18:17:15.300Z,19.10
2022-09-07T18:20:19.016Z,19.00
2022-09-07T18:23:20.888Z,19.00
2022-09-07T18:26:23.057Z,18.90
2022-09-07T18:29:29.266Z,18.80
2022-09-07T18:32:32.757Z,18.70
2022-09-07T18:35:34.531Z,18.60
2022-09-07T18:38:36.408Z,18.60
2022-09-07T18:41:40.912Z,18.60
2022-09-07T18:48:04.715Z,18.40
2022-09-07T18:51:06.561Z,18.40
2022-09-07T18:54:08.339Z,18.30
2022-09-07T18:57:10.097Z,18.30
2022-09-07T19:00:12.319Z,18.30
2022-09-07T19:03:14.286Z,18.30
2022-09-07T19:06:16.060Z,18.30
2022-09-07T19:09:17.804Z,18.20
2022-09-07T19:12:19.919Z,18.20
2022-09-07T19:15:21.801Z,18.20
2022-09-07T19:18:23.548Z,18.20
2022-09-07T19:21:29.440Z,18.10
2022-09-07T19:24:31.892Z,18.10
2022-09-07T19:27:33.948Z,18.10
2022-09-07T19:30:36.063Z,18.00
2022-09-07T19:33:37.840Z,18.00
2022-09-07T19:36:40.791Z,18.00
2022-09-07T19:39:42.589Z,18.00
2022-09-07T19:42:44.944Z,18.00
2022-09-07T19:45:46.764Z,18.00
2022-09-07T19:48:48.566Z,17.90
2022-09-07T19:51:51.997Z,18.00
2022-09-07T19:54:53.897Z,18.00
2022-09-07T19:57:55.658Z,18.00
2022-09-07T20:00:57.565Z,17.90
2022-09-07T20:04:00.280Z,18.00
2022-09-07T20:07:02.055Z,17.80
2022-09-07T20:10:03.931Z,17.80
2022-09-07T20:13:05.760Z,17.80
2022-09-07T20:16:08.307Z,17.70
2022-09-07T20:19:11.143Z,17.70
2022-09-07T20:22:12.934Z,17.70
2022-09-07T20:25:14.727Z,17.80
2022-09-07T20:28:16.492Z,17.80
2022-09-07T20:31:18.315Z,17.70
2022-09-07T20:34:20.253Z,17.80
2022-09-07T20:37:25.079Z,17.60
2022-09-07T20:40:26.863Z,17.00
2022-09-07T20:43:29.433Z,16.60
2022-09-07T20:46:31.404Z,15.90
2022-09-07T20:49:33.279Z,15.60
2022-09-07T20:52:35.051Z,15.40
2022-09-07T20:55:36.803Z,15.30
2022-09-07T20:58:38.683Z,15.20
2022-09-07T21:01:40.551Z,15.10
2022-09-07T21:04:42.716Z,15.10
2022-09-07T21:07:44.523Z,15.10
2022-09-07T21:10:46.698Z,15.20
2022-09-07T21:13:54.009Z,15.20
2022-09-07T21:16:55.775Z,15.30
2022-09-07T21:19:57.522Z,15.30
2022-09-07T21:22:59.634Z,15.30
2022-09-07T21:26:01.518Z,15.30
2022-09-07T21:29:03.975Z,15.30
2022-09-07T21:32:05.758Z,15.40
2022-09-07T21:35:07.977Z,15.40
2022-09-07T21:38:09.744Z,15.40
2022-09-07T21:41:12.303Z,15.40
2022-09-07T21:44:14.524Z,15.40
2022-09-07T21:47:16.446Z,15.40
2022-09-07T21:50:18.467Z,15.40
2022-09-07T21:53:20.213Z,15.40
2022-09-07T21:56:22.147Z,15.30
2022-09-07T21:59:23.879Z,15.30
2022-09-07T22:02:25.718Z,15.30
2022-09-07T22:05:27.555Z,15.30
2022-09-07T22:08:30.384Z,15.30
2022-09-07T22:11:32.192Z,15.10
2022-09-07T22:14:33.984Z,15.20
2022-09-07T22:17:35.713Z,15.10
2022-09-07T22:20:37.476Z,15.10
2022-09-07T22:23:39.957Z,15.10
2022-09-07T22:26:41.763Z,15.10
2022-09-07T22:29:43.518Z,15.10
2022-09-07T22:32:48.462Z,15.10
2022-09-07T22:35:50.657Z,15.10
2022-09-07T22:38:52.793Z,15.10
2022-09-07T22:41:54.557Z,15.10
2022-09-07T22:44:56.367Z,15.10
2022-09-07T22:47:58.144Z,15.10
2022-09-07T22:51:00.056Z,15.10
2022-09-07T22:54:01.835Z,15.10
2022-09-07T22:57:03.692Z,15.00
2022-09-07T23:00:05.862Z,15.00
2022-09-07T23:03:07.680Z,15.00
2022-09-07T23:06:18.804Z,15.00
2022-09-07T23:09:20.915Z,15.00
2022-09-07T23:12:22.672Z,15.00
2022-09-07T23:15:24.683Z,15.00
2022-09-07T23:18:26.426Z,15.00
2022-09-07T23:21:28.462Z,14.90
2022-09-07T23:24:30.511Z,15.00
2022-09-07T23:27:32.278Z,15.00
2022-09-07T23:30:35.588Z,15.00
2022-09-07T23:33:37.365Z,15.00
2022-09-07T23:36:39.195Z,15.00
2022-09-07T23:39:41.974Z,15.00
2022-09-07T23:42:43.811Z,15.10
2022-09-07T23:45:45.618Z,15.10
2022-09-07T23:48:47.411Z,15.00
2022-09-07T23:51:49.153Z,15.10
2022-09-07T23:54:50.901Z,15.10
2022-09-07T23:57:52.686Z,15.10
